Time;durP1;ratioP1;P1;durP2;ratioP2;P2;SDS_P1;SDS_P2;PMS_P1;PMS_P2;Temp;Humidity;BMP_temperature;BMP_pressure;BME280_temperature;BME280_humidity;BME280_pressure;Samples;Min_cycle;Max_cycle;Signal;HPM_P1;HPM_P2
2022/09/13 00:01:48;;;;;;;4.60;3.30;;;18.30;99.90;;;;;;5064950;28;20518;-78
2022/09/13 00:04:14;;;;;;;3.90;3.10;;;18.20;99.90;;;;;;5056380;28;20544;-80
2022/09/13 00:06:41;;;;;;;4.57;3.50;;;18.30;99.90;;;;;;5057643;28;20530;-78
2022/09/13 00:09:08;;;;;;;4.20;3.43;;;18.20;99.90;;;;;;5068890;28;20453;-79
2022/09/13 00:11:35;;;;;;;4.23;3.40;;;18.30;99.90;;;;;;5068854;28;20459;-78
2022/09/13 00:14:03;;;;;;;4.90;3.00;;;18.30;99.90;;;;;;5068048;28;20567;-81
2022/09/13 00:16:31;;;;;;;4.63;3.27;;;18.20;99.90;;;;;;5068291;28;20480;-79
2022/09/13 00:18:59;;;;;;;6.40;2.93;;;18.20;99.90;;;;;;5066248;28;20484;-81
2022/09/13 00:21:26;;;;;;;3.70;2.93;;;18.20;99.90;;;;;;5067930;28;20478;-81
2022/09/13 00:23:55;;;;;;;4.57;3.30;;;18.20;99.90;;;;;;5067760;28;20479;-79
2022/09/13 00:26:24;;;;;;;2.93;2.50;;;18.20;99.90;;;;;;5067538;28;20477;-78
2022/09/13 00:28:51;;;;;;;2.83;2.13;;;18.20;99.90;;;;;;5069003;28;20448;-79
2022/09/13 00:31:20;;;;;;;6.50;3.60;;;18.20;99.90;;;;;;5068743;28;20468;-80
2022/09/13 00:33:47;;;;;;;4.20;2.90;;;18.20;99.90;;;;;;5066518;28;20543;-79
2022/09/13 00:36:15;;;;;;;4.20;3.00;;;18.20;99.90;;;;;;5065130;28;20468;-79
2022/09/13 00:38:43;;;;;;;6.23;3.40;;;18.20;99.90;;;;;;5067982;28;20549;-78
2022/09/13 00:41:13;;;;;;;3.47;2.27;;;18.20;99.90;;;;;;5067177;28;20450;-78
2022/09/13 00:43:46;;;;;;;5.90;2.60;;;18.40;99.90;;;;;;5066808;28;20835;-78
2022/09/13 00:46:17;;;;;;;4.10;2.70;;;18.40;99.90;;;;;;5067514;28;20453;-80
2022/09/13 00:48:47;;;;;;;5.33;3.50;;;18.50;99.90;;;;;;5067373;28;20451;-78
2022/09/13 00:51:14;;;;;;;2.93;2.63;;;18.50;99.90;;;;;;5066818;28;20456;-80
2022/09/13 00:53:46;;;;;;;4.20;3.00;;;18.60;99.90;;;;;;5065681;28;20470;-80
2022/09/13 00:56:18;;;;;;;4.10;2.63;;;18.60;99.90;;;;;;5067273;28;20525;-77
2022/09/13 00:58:49;;;;;;;5.40;2.57;;;18.60;99.90;;;;;;5068201;28;20545;-79
2022/09/13 01:01:20;;;;;;;4.73;2.73;;;18.60;99.90;;;;;;5067791;28;20452;-78
2022/09/13 01:03:49;;;;;;;4.63;2.70;;;18.60;99.90;;;;;;5066575;28;20473;-79
2022/09/13 01:06:18;;;;;;;3.37;2.70;;;18.70;99.90;;;;;;5067440;28;20454;-79
2022/09/13 01:08:49;;;;;;;3.20;2.90;;;18.70;99.90;;;;;;5067746;28;20460;-78
2022/09/13 01:11:23;;;;;;;3.07;2.53;;;18.70;99.90;;;;;;5066050;28;20455;-79
2022/09/13 01:13:51;;;;;;;3.20;2.70;;;18.70;99.90;;;;;;5066104;28;20494;-78
2022/09/13 01:16:17;;;;;;;5.27;2.40;;;18.70;99.90;;;;;;5067915;28;21126;-78
2022/09/13 01:18:44;;;;;;;4.57;3.00;;;18.70;99.90;;;;;;5067255;28;20485;-79
2022/09/13 01:21:47;;;;;;;7.00;3.37;;;18.70;99.90;;;;;;5067875;28;20481;-79
2022/09/13 01:24:50;;;;;;;3.83;2.90;;;18.60;99.90;;;;;;5045786;28;20552;-80
2022/09/13 01:27:37;;;;;;;3.40;2.20;;;18.60;99.90;;;;;;5064219;28;20483;-79
2022/09/13 01:30:15;;;;;;;3.60;3.03;;;18.60;99.90;;;;;;5068087;28;20450;-78
2022/09/13 01:32:57;;;;;;;3.70;2.30;;;18.50;99.90;;;;;;5066687;28;20470;-77
2022/09/13 01:35:39;;;;;;;3.27;2.50;;;18.50;99.90;;;;;;5066595;28;20502;-78
2022/09/13 01:38:18;;;;;;;3.80;2.67;;;18.50;99.90;;;;;;5066753;28;20460;-78
2022/09/13 01:40:57;;;;;;;3.33;2.30;;;18.50;99.90;;;;;;5067502;28;20438;-80
2022/09/13 01:43:35;;;;;;;6.57;3.10;;;18.40;99.90;;;;;;5065307;28;20470;-78
2022/09/13 01:46:10;;;;;;;4.27;2.77;;;18.40;99.90;;;;;;5066293;28;20477;-79
2022/09/13 01:48:54;;;;;;;4.80;2.47;;;18.40;99.90;;;;;;5066606;28;20451;-77
2022/09/13 01:51:26;;;;;;;3.53;2.70;;;18.40;99.90;;;;;;5066197;28;20443;-78
2022/09/13 01:54:06;;;;;;;3.20;2.03;;;18.40;99.90;;;;;;5064685;28;20542;-79
2022/09/13 01:56:39;;;;;;;3.00;2.40;;;18.30;99.90;;;;;;5067539;28;20447;-78
2022/09/13 01:59:11;;;;;;;3.80;2.40;;;18.30;99.90;;;;;;5065647;28;20486;-79
2022/09/13 02:01:45;;;;;;;3.40;2.80;;;18.30;99.90;;;;;;5066391;28;20464;-80
2022/09/13 02:04:17;;;;;;;3.30;2.83;;;18.30;99.90;;;;;;5065199;28;20482;-80
2022/09/13 02:06:46;;;;;;;4.50;2.67;;;18.30;99.90;;;;;;5066353;28;20449;-78
2022/09/13 02:09:17;;;;;;;3.90;2.60;;;18.30;99.90;;;;;;5065292;28;20944;-79
2022/09/13 02:11:47;;;;;;;5.47;2.80;;;18.20;99.90;;;;;;5064667;28;20609;-80
2022/09/13 02:14:17;;;;;;;3.33;2.37;;;18.20;99.90;;;;;;5064404;28;20557;-78
2022/09/13 02:16:49;;;;;;;3.70;2.47;;;18.30;99.90;;;;;;5065127;28;20530;-78
2022/09/13 02:19:19;;;;;;;3.90;2.70;;;18.30;99.90;;;;;;5066010;28;20553;-79
2022/09/13 02:21:52;;;;;;;6.70;2.80;;;18.30;99.90;;;;;;5064545;28;20700;-77
2022/09/13 02:24:23;;;;;;;3.10;2.37;;;18.30;99.90;;;;;;5064258;28;20546;-78
2022/09/13 02:26:52;;;;;;;2.50;2.23;;;18.30;99.90;;;;;;5066092;28;20479;-79
2022/09/13 02:29:23;;;;;;;4.37;2.63;;;18.30;99.90;;;;;;5065242;28;20459;-78
2022/09/13 02:31:56;;;;;;;4.80;2.80;;;18.30;99.90;;;;;;5064149;28;20512;-78
2022/09/13 02:34:26;;;;;;;4.67;3.00;;;18.30;99.90;;;;;;5064655;28;20477;-77
2022/09/13 02:36:55;;;;;;;3.20;2.37;;;18.30;99.90;;;;;;5065130;28;20461;-79
2022/09/13 02:39:26;;;;;;;5.00;2.50;;;18.30;99.90;;;;;;5065492;28;20491;-79
2022/09/13 02:41:56;;;;;;;5.00;3.07;;;18.30;99.90;;;;;;5046067;28;20463;-78
2022/09/13 02:44:30;;;;;;;7.40;2.70;;;18.40;99.90;;;;;;5044877;28;20471;-78
2022/09/13 02:47:11;;;;;;;3.20;2.60;;;18.40;99.90;;;;;;5045498;28;20524;-80
2022/09/13 02:49:50;;;;;;;4.37;2.70;;;18.30;99.90;;;;;;5045754;28;20448;-78
2022/09/13 02:52:23;;;;;;;3.30;2.57;;;18.30;99.90;;;;;;5045626;28;20903;-80
2022/09/13 02:54:56;;;;;;;5.00;2.40;;;18.30;99.90;;;;;;5046529;28;20439;-78
2022/09/13 02:57:31;;;;;;;5.20;2.70;;;18.30;99.90;;;;;;5064107;28;20463;-79
2022/09/13 02:59:58;;;;;;;5.90;2.73;;;18.30;99.90;;;;;;5062430;28;20628;-78
2022/09/13 03:02:31;;;;;;;4.37;3.00;;;18.30;99.90;;;;;;5063380;28;20545;-80
2022/09/13 03:04:59;;;;;;;6.87;2.60;;;18.30;99.90;;;;;;5062820;28;20438;-78
2022/09/13 03:07:26;;;;;;;4.10;2.37;;;18.30;99.90;;;;;;5064095;28;20993;-79
2022/09/13 03:09:56;;;;;;;3.43;2.97;;;18.30;99.90;;;;;;5063596;28;20542;-79
2022/09/13 03:12:43;;;;;;;2.93;2.40;;;18.40;99.90;;;;;;5064044;28;20460;-78
2022/09/13 03:15:20;;;;;;;4.33;2.50;;;18.30;99.90;;;;;;5061882;28;20478;-78
2022/09/13 03:18:01;;;;;;;4.80;2.80;;;18.40;99.90;;;;;;5062094;28;20469;-81
2022/09/13 03:20:40;;;;;;;4.30;2.70;;;18.40;99.90;;;;;;5061324;28;20468;-79
2022/09/13 03:23:32;;;;;;;2.90;2.40;;;18.40;99.90;;;;;;5061437;28;20501;-78
2022/09/13 03:26:30;;;;;;;6.23;2.90;;;18.40;99.90;;;;;;5057649;28;20494;-78
2022/09/13 03:29:21;;;;;;;5.50;2.77;;;18.40;99.90;;;;;;5028971;28;20467;-78
2022/09/13 03:31:54;;;;;;;3.17;2.40;;;18.50;99.90;;;;;;5061563;28;20458;-78
2022/09/13 03:34:31;;;;;;;3.10;2.53;;;18.40;99.90;;;;;;5066045;28;20438;-81
2022/09/13 03:37:03;;;;;;;4.87;2.80;;;18.50;99.90;;;;;;5073593;28;20498;-80
2022/09/13 03:39:37;;;;;;;3.17;2.50;;;18.50;99.90;;;;;;5072332;28;20485;-80
2022/09/13 03:42:11;;;;;;;4.17;2.97;;;18.50;99.90;;;;;;5071445;28;20512;-80
2022/09/13 03:44:39;;;;;;;3.80;2.70;;;18.40;99.90;;;;;;5069991;28;20474;-80
2022/09/13 03:47:08;;;;;;;3.47;2.87;;;18.50;99.90;;;;;;5069543;28;20457;-80
2022/09/13 03:49:39;;;;;;;4.67;3.20;;;18.50;99.90;;;;;;5066797;28;20444;-81
2022/09/13 03:52:06;;;;;;;3.60;2.40;;;18.50;99.90;;;;;;5073749;28;20444;-79
2022/09/13 03:54:37;;;;;;;3.20;2.37;;;18.50;99.90;;;;;;5067883;28;20501;-78
2022/09/13 03:57:09;;;;;;;4.70;2.50;;;18.50;99.90;;;;;;5067307;28;20463;-81
2022/09/13 03:59:37;;;;;;;3.27;2.63;;;18.50;99.90;;;;;;5067445;28;20482;-80
2022/09/13 04:02:05;;;;;;;4.87;2.77;;;18.40;99.90;;;;;;5067904;28;20535;-80
2022/09/13 04:04:32;;;;;;;3.80;2.90;;;18.40;99.90;;;;;;5045514;28;20485;-79
2022/09/13 04:07:03;;;;;;;4.17;3.03;;;18.40;99.90;;;;;;5060949;28;20497;-80
2022/09/13 04:09:29;;;;;;;5.20;3.23;;;18.40;99.90;;;;;;5060833;28;20902;-79
2022/09/13 04:11:56;;;;;;;4.53;2.87;;;18.50;99.90;;;;;;5067017;28;20799;-79
2022/09/13 04:14:25;;;;;;;5.27;2.77;;;18.40;99.90;;;;;;5059195;28;20496;-80
2022/09/13 04:16:52;;;;;;;5.50;2.60;;;18.50;99.90;;;;;;5065089;28;20462;-79
2022/09/13 04:19:19;;;;;;;4.43;2.67;;;18.50;99.90;;;;;;5058110;28;20527;-79
2022/09/13 04:21:48;;;;;;;3.77;2.80;;;18.50;99.90;;;;;;5070587;22;20612;-84
2022/09/13 04:24:17;;;;;;;3.13;2.60;;;18.50;99.90;;;;;;5033613;28;20467;-83
2022/09/13 04:26:44;;;;;;;3.33;2.60;;;18.40;99.90;;;;;;5051997;28;20454;-84
2022/09/13 04:29:11;;;;;;;4.13;2.73;;;18.40;99.90;;;;;;5057662;28;20457;-84
2022/09/13 04:31:38;;;;;;;4.07;3.10;;;18.40;99.90;;;;;;5040702;28;20447;-85
2022/09/13 04:34:05;;;;;;;5.07;3.10;;;18.40;99.90;;;;;;5037721;28;20455;-84
2022/09/13 04:36:32;;;;;;;4.50;3.17;;;18.40;99.90;;;;;;5040539;28;20455;-83
2022/09/13 04:38:59;;;;;;;4.23;3.10;;;18.40;99.90;;;;;;5038518;28;20460;-84
2022/09/13 04:41:28;;;;;;;4.50;2.70;;;18.40;99.90;;;;;;5040192;28;20491;-85
2022/09/13 04:43:55;;;;;;;3.20;2.47;;;18.40;99.90;;;;;;5040847;28;20485;-85
2022/09/13 04:46:22;;;;;;;5.50;3.10;;;18.40;99.90;;;;;;5040806;28;20456;-83
2022/09/13 04:48:49;;;;;;;3.40;2.70;;;18.40;99.90;;;;;;5040318;28;20555;-83
2022/09/13 04:51:16;;;;;;;5.30;2.63;;;18.40;99.90;;;;;;5040518;28;20446;-83
2022/09/13 04:53:43;;;;;;;4.50;2.87;;;18.40;99.90;;;;;;5039678;28;20929;-84
2022/09/13 04:56:12;;;;;;;5.20;3.33;;;18.40;99.90;;;;;;5040695;28;20504;-84
2022/09/13 04:58:41;;;;;;;4.03;3.10;;;18.40;99.90;;;;;;5041001;28;20550;-85
2022/09/13 05:01:09;;;;;;;5.17;3.17;;;18.30;99.90;;;;;;5040474;28;20495;-84
2022/09/13 05:03:37;;;;;;;4.37;3.37;;;18.30;99.90;;;;;;5039507;28;20475;-83
2022/09/13 05:06:05;;;;;;;3.53;3.03;;;18.30;99.90;;;;;;5039344;28;20448;-83
2022/09/13 05:08:32;;;;;;;4.60;2.80;;;18.30;99.90;;;;;;5040742;28;20523;-83
2022/09/13 05:10:59;;;;;;;5.23;3.00;;;18.30;99.90;;;;;;5040121;28;20461;-83
2022/09/13 05:13:26;;;;;;;4.60;2.60;;;18.30;99.90;;;;;;5038919;28;20537;-83
2022/09/13 05:15:56;;;;;;;9.60;3.50;;;18.30;99.90;;;;;;5039734;28;20455;-84
2022/09/13 05:18:26;;;;;;;4.57;3.90;;;18.30;99.90;;;;;;5039574;28;21026;-84
2022/09/13 05:20:55;;;;;;;3.50;2.53;;;18.30;99.90;;;;;;5038990;28;20563;-84
2022/09/13 05:23:22;;;;;;;4.40;3.37;;;18.30;99.90;;;;;;5038416;28;20490;-84
2022/09/13 05:25:53;;;;;;;4.93;3.30;;;18.30;99.90;;;;;;5039454;28;20456;-83
2022/09/13 05:28:20;;;;;;;5.13;3.43;;;18.30;99.90;;;;;;5039880;28;20436;-83
2022/09/13 05:30:56;;;;;;;4.43;2.60;;;18.30;99.90;;;;;;5036829;28;20492;-83
2022/09/13 05:33:23;;;;;;;5.30;3.50;;;18.40;99.90;;;;;;5036413;28;20487;-83
2022/09/13 05:35:50;;;;;;;3.70;3.23;;;18.40;99.90;;;;;;5037417;28;20457;-83
2022/09/13 05:38:17;;;;;;;3.30;3.00;;;18.40;99.90;;;;;;5037182;28;20493;-82
2022/09/13 05:40:44;;;;;;;3.03;2.73;;;18.40;99.90;;;;;;5037596;28;20492;-84
2022/09/13 05:43:11;;;;;;;3.33;2.77;;;18.40;99.90;;;;;;5036449;28;20474;-83
2022/09/13 05:45:38;;;;;;;4.27;3.07;;;18.40;99.90;;;;;;5035869;28;20468;-84
2022/09/13 05:48:06;;;;;;;6.37;2.93;;;18.50;99.90;;;;;;5038128;28;20530;-84
2022/09/13 05:50:37;;;;;;;3.20;2.90;;;18.50;99.90;;;;;;5038374;28;20526;-83
2022/09/13 05:53:04;;;;;;;2.97;2.57;;;18.50;99.90;;;;;;5035012;28;20902;-82
2022/09/13 05:55:31;;;;;;;4.27;2.90;;;18.50;99.90;;;;;;5036203;28;20452;-82
2022/09/13 05:57:58;;;;;;;4.33;3.17;;;18.60;99.90;;;;;;5035252;28;20468;-83
2022/09/13 06:00:25;;;;;;;3.70;3.13;;;18.60;99.90;;;;;;5035161;28;20514;-82
2022/09/13 06:02:52;;;;;;;2.93;2.63;;;18.50;99.90;;;;;;5034159;28;20479;-81
2022/09/13 06:05:20;;;;;;;4.80;3.17;;;18.50;99.90;;;;;;5033849;28;20972;-81
2022/09/13 06:07:47;;;;;;;5.10;2.93;;;18.60;99.90;;;;;;5034253;28;20466;-82
2022/09/13 06:10:14;;;;;;;5.77;2.57;;;18.60;99.90;;;;;;5033600;28;20455;-82
2022/09/13 06:12:40;;;;;;;4.57;2.90;;;18.60;99.90;;;;;;5034408;28;20479;-83
2022/09/13 06:15:10;;;;;;;5.60;3.20;;;18.70;99.90;;;;;;5034578;28;20460;-82
2022/09/13 06:17:37;;;;;;;4.57;3.00;;;18.60;99.90;;;;;;5035470;28;20974;-83
2022/09/13 06:20:04;;;;;;;4.97;3.00;;;18.70;99.90;;;;;;5034628;28;20873;-82
2022/09/13 06:22:34;;;;;;;5.17;2.57;;;18.70;99.90;;;;;;5032709;28;20552;-82
2022/09/13 06:25:00;;;;;;;6.57;3.50;;;18.70;99.90;;;;;;5039633;28;20456;-84
2022/09/13 06:27:29;;;;;;;5.90;3.33;;;18.70;99.90;;;;;;5045202;28;20535;-86
2022/09/13 06:29:56;;;;;;;4.70;2.63;;;18.60;99.90;;;;;;5044464;28;20593;-84
2022/09/13 06:32:23;;;;;;;3.70;2.77;;;18.70;99.90;;;;;;5040814;28;20536;-85
2022/09/13 06:34:49;;;;;;;3.00;2.70;;;18.70;99.90;;;;;;5043028;28;20482;-84
2022/09/13 06:37:16;;;;;;;6.50;3.67;;;18.80;99.90;;;;;;5042548;28;20468;-83
2022/09/13 06:39:44;;;;;;;4.20;2.43;;;18.80;99.90;;;;;;5043656;28;20524;-84
2022/09/13 06:42:11;;;;;;;5.00;3.40;;;18.90;99.90;;;;;;5042871;28;20582;-84
2022/09/13 06:44:38;;;;;;;3.90;3.00;;;18.90;99.90;;;;;;5042370;28;20467;-84
2022/09/13 06:47:05;;;;;;;4.43;3.30;;;18.90;99.90;;;;;;5043093;28;20517;-85
2022/09/13 06:49:32;;;;;;;3.63;2.33;;;18.90;99.90;;;;;;5042588;28;20899;-84
2022/09/13 06:51:59;;;;;;;4.90;2.83;;;18.90;99.90;;;;;;5042324;28;20483;-85
2022/09/13 06:54:25;;;;;;;4.17;3.00;;;18.90;99.90;;;;;;5042844;28;20455;-83
2022/09/13 06:56:54;;;;;;;4.17;2.63;;;18.90;99.90;;;;;;5036690;28;20456;-85
2022/09/13 06:59:21;;;;;;;3.40;2.63;;;19.00;99.90;;;;;;5038273;28;20539;-82
2022/09/13 07:01:49;;;;;;;3.10;2.30;;;19.00;99.90;;;;;;5036818;28;20492;-84
2022/09/13 07:04:20;;;;;;;5.73;2.97;;;19.10;99.90;;;;;;5028272;28;20452;-83
2022/09/13 07:06:48;;;;;;;3.67;2.73;;;19.20;99.90;;;;;;5030915;28;20453;-83
2022/09/13 07:09:19;;;;;;;4.20;3.23;;;19.20;99.90;;;;;;5036337;28;20558;-83
2022/09/13 07:11:47;;;;;;;6.13;3.60;;;19.20;99.90;;;;;;5036431;28;21120;-83
2022/09/13 07:14:17;;;;;;;5.80;3.00;;;19.20;99.90;;;;;;5037523;28;20448;-83
2022/09/13 07:16:44;;;;;;;8.03;3.60;;;19.30;99.90;;;;;;5036308;28;20464;-84
2022/09/13 07:19:14;;;;;;;2.87;2.40;;;19.40;99.90;;;;;;5033017;28;20462;-84
2022/09/13 07:21:41;;;;;;;5.20;2.97;;;19.50;99.90;;;;;;5028882;28;20491;-84
2022/09/13 07:24:09;;;;;;;5.80;2.60;;;19.60;99.90;;;;;;5028283;28;20463;-84
2022/09/13 07:26:36;;;;;;;5.13;3.10;;;19.60;99.90;;;;;;5029092;28;20824;-83
2022/09/13 07:29:09;;;;;;;5.47;2.40;;;19.60;99.90;;;;;;5034172;28;20979;-84
2022/09/13 07:31:42;;;;;;;4.07;2.57;;;19.70;99.90;;;;;;5032103;28;20476;-83
2022/09/13 07:34:13;;;;;;;2.93;2.63;;;19.80;99.90;;;;;;5034548;28;20531;-84
2022/09/13 07:36:40;;;;;;;4.50;3.20;;;19.90;99.90;;;;;;5032456;28;20452;-84
2022/09/13 07:39:08;;;;;;;5.10;2.70;;;19.90;99.90;;;;;;5033366;28;20536;-86
2022/09/13 07:41:35;;;;;;;4.03;2.23;;;20.00;99.90;;;;;;5034532;28;20491;-83
2022/09/13 07:44:05;;;;;;;4.00;3.03;;;20.20;99.90;;;;;;5031713;28;20563;-83
2022/09/13 07:46:35;;;;;;;3.60;2.57;;;20.20;99.90;;;;;;5024943;28;20448;-84
2022/09/13 07:49:03;;;;;;;6.40;2.97;;;20.30;99.90;;;;;;5028378;28;20445;-83
2022/09/13 07:51:31;;;;;;;3.77;2.03;;;20.30;99.90;;;;;;5027153;28;20884;-84
2022/09/13 07:54:01;;;;;;;4.30;2.30;;;20.40;99.90;;;;;;5025441;28;20536;-85
2022/09/13 07:56:30;;;;;;;3.80;2.87;;;20.50;99.90;;;;;;5030711;28;20476;-85
2022/09/13 07:58:59;;;;;;;4.10;2.33;;;20.60;99.90;;;;;;5033456;28;20516;-84
2022/09/13 08:01:28;;;;;;;5.43;2.93;;;20.70;99.90;;;;;;5037867;28;20535;-85
2022/09/13 08:03:56;;;;;;;5.33;2.97;;;20.80;99.90;;;;;;5037864;28;21024;-85
2022/09/13 08:06:26;;;;;;;7.40;2.97;;;20.80;99.90;;;;;;5033418;28;20457;-86
2022/09/13 08:08:53;;;;;;;6.77;2.90;;;20.80;99.90;;;;;;5023233;28;20456;-83
2022/09/13 08:11:22;;;;;;;4.43;2.60;;;20.80;99.90;;;;;;5030325;28;20455;-86
2022/09/13 08:13:50;;;;;;;3.60;2.30;;;20.90;99.90;;;;;;5040495;28;20469;-83
2022/09/13 08:16:19;;;;;;;4.63;3.00;;;20.90;99.90;;;;;;5041984;28;20458;-85
2022/09/13 08:18:46;;;;;;;3.83;2.33;;;20.90;99.90;;;;;;5040608;28;20445;-84
2022/09/13 08:21:13;;;;;;;5.40;2.93;;;21.00;99.90;;;;;;5038252;28;20573;-84
2022/09/13 08:23:42;;;;;;;6.83;2.97;;;21.10;99.90;;;;;;5037683;28;20489;-84
2022/09/13 08:26:09;;;;;;;5.27;3.13;;;21.20;99.90;;;;;;5039611;28;20488;-84
2022/09/13 08:28:39;;;;;;;4.10;3.23;;;21.20;99.90;;;;;;5039602;28;20455;-83
2022/09/13 08:31:15;;;;;;;5.00;2.87;;;21.30;99.90;;;;;;5038869;28;20445;-86
2022/09/13 08:33:43;;;;;;;4.20;2.57;;;21.30;99.90;;;;;;5034897;28;20480;-84
2022/09/13 08:36:10;;;;;;;4.10;3.27;;;21.40;99.90;;;;;;5037810;28;20864;-83
2022/09/13 08:38:37;;;;;;;5.30;3.40;;;21.50;99.90;;;;;;5039784;28;20459;-85
2022/09/13 08:41:44;;;;;;;4.20;3.13;;;21.50;99.90;;;;;;5036055;28;20600;-83
2022/09/13 08:44:16;;;;;;;5.00;3.43;;;21.60;99.90;;;;;;4947647;28;20467;-82
2022/09/13 08:46:46;;;;;;;8.00;3.60;;;21.60;99.90;;;;;;5035729;28;20560;-84
2022/09/13 08:49:18;;;;;;;5.40;3.60;;;21.70;99.90;;;;;;5034626;28;20467;-83
2022/09/13 08:51:47;;;;;;;4.73;3.33;;;21.80;99.90;;;;;;5021608;28;20446;-82
2022/09/13 08:54:16;;;;;;;7.40;3.80;;;21.70;99.90;;;;;;5034317;28;20552;-82
2022/09/13 08:56:51;;;;;;;6.83;3.93;;;21.70;99.90;;;;;;5028889;28;20825;-82
2022/09/13 08:59:33;;;;;;;10.70;3.90;;;21.80;99.90;;;;;;5016063;28;20441;-83
2022/09/13 09:02:12;;;;;;;6.73;3.60;;;22.00;99.90;;;;;;5035296;28;20587;-82
2022/09/13 09:04:45;;;;;;;9.03;4.60;;;22.10;99.90;;;;;;5027051;28;20988;-82
2022/09/13 09:07:16;;;;;;;10.13;5.00;;;22.10;99.90;;;;;;5027475;28;20921;-83
2022/09/13 09:09:48;;;;;;;12.43;4.60;;;22.10;99.90;;;;;;5035800;28;20463;-83
2022/09/13 09:12:24;;;;;;;4.77;3.50;;;22.00;99.90;;;;;;5036176;28;21286;-82
2022/09/13 09:15:02;;;;;;;6.23;4.00;;;22.10;99.90;;;;;;5035215;28;20448;-82
2022/09/13 09:17:35;;;;;;;5.60;3.43;;;22.20;99.90;;;;;;5035564;28;20456;-83
2022/09/13 09:20:09;;;;;;;5.70;3.07;;;22.30;99.90;;;;;;5034606;28;20449;-83
2022/09/13 09:22:36;;;;;;;4.80;3.20;;;22.50;99.90;;;;;;5043462;28;20489;-84
2022/09/13 09:25:18;;;;;;;7.23;3.90;;;22.60;99.90;;;;;;5044509;28;20807;-82
2022/09/13 09:27:46;;;;;;;8.53;4.67;;;22.80;99.90;;;;;;5042125;28;20437;-83
2022/09/13 09:30:15;;;;;;;4.73;3.47;;;23.00;99.90;;;;;;5040580;28;20539;-83
2022/09/13 09:32:56;;;;;;;5.90;3.53;;;23.20;99.90;;;;;;5044190;28;20866;-84
2022/09/13 09:35:44;;;;;;;7.40;3.60;;;23.20;99.90;;;;;;5029605;28;20442;-83
2022/09/13 09:38:40;;;;;;;4.93;4.23;;;23.50;99.90;;;;;;5023371;28;20454;-84
2022/09/13 09:41:16;;;;;;;6.77;4.07;;;23.70;99.90;;;;;;5046211;28;20487;-82
2022/09/13 09:44:05;;;;;;;4.83;3.50;;;23.90;99.90;;;;;;5039112;28;20475;-83
2022/09/13 09:46:37;;;;;;;5.93;3.63;;;24.00;99.90;;;;;;5047524;28;20479;-83
2022/09/13 09:50:07;;;;;;;6.53;3.80;;;24.00;99.90;;;;;;5043747;28;20924;-83
2022/09/13 09:52:03;;;;;;;7.70;3.67;;;24.10;99.90;;;;;;5035421;28;20461;-84
2022/09/13 09:54:30;;;;;;;6.07;3.20;;;24.30;99.90;;;;;;5035437;28;20456;-82
2022/09/13 09:56:57;;;;;;;6.00;3.50;;;24.40;99.90;;;;;;5037193;28;20449;-83
2022/09/13 09:59:30;;;;;;;6.50;3.47;;;24.40;99.90;;;;;;5037460;28;20449;-83
2022/09/13 10:01:57;;;;;;;5.20;3.43;;;24.50;99.90;;;;;;5038323;28;20511;-83
2022/09/13 10:04:25;;;;;;;5.10;3.50;;;24.70;99.90;;;;;;5036502;28;20461;-83
2022/09/13 10:07:10;;;;;;;6.40;4.80;;;24.70;99.90;;;;;;5038007;28;20449;-83
2022/09/13 10:09:38;;;;;;;5.37;4.27;;;24.50;99.90;;;;;;5038521;28;21231;-82
2022/09/13 10:12:06;;;;;;;5.77;3.93;;;24.60;99.90;;;;;;5032654;28;20481;-82
2022/09/13 10:14:39;;;;;;;7.87;4.20;;;24.90;99.90;;;;;;5027167;28;20485;-83
2022/09/13 10:17:20;;;;;;;5.70;4.67;;;25.10;99.90;;;;;;5032773;28;20473;-84
2022/09/13 10:19:57;;;;;;;7.23;4.83;;;25.20;99.90;;;;;;5034606;28;20500;-83
2022/09/13 10:22:25;;;;;;;7.03;4.20;;;25.40;99.90;;;;;;5032499;28;20491;-83
2022/09/13 10:24:52;;;;;;;7.00;3.40;;;25.50;99.90;;;;;;5032342;28;20452;-82
2022/09/13 10:27:26;;;;;;;5.97;4.37;;;25.50;99.90;;;;;;5038117;28;20475;-83
2022/09/13 10:29:58;;;;;;;5.73;3.57;;;25.60;99.90;;;;;;5031470;28;20487;-83
2022/09/13 10:32:26;;;;;;;8.60;4.80;;;25.70;99.90;;;;;;5037558;28;20468;-82
2022/09/13 10:34:53;;;;;;;7.37;4.10;;;25.70;99.90;;;;;;5027565;28;20960;-84
2022/09/13 10:37:25;;;;;;;6.80;4.10;;;25.70;99.90;;;;;;5039777;28;20552;-83
2022/09/13 10:39:58;;;;;;;5.40;3.90;;;25.60;99.90;;;;;;5037092;28;20456;-83
2022/09/13 10:42:27;;;;;;;7.50;4.13;;;25.50;99.90;;;;;;5039454;28;20495;-83
2022/09/13 10:44:57;;;;;;;6.50;3.60;;;25.60;99.90;;;;;;5036581;28;20457;-84
2022/09/13 10:47:27;;;;;;;8.47;4.30;;;26.00;99.90;;;;;;5038231;28;20547;-83
2022/09/13 10:49:56;;;;;;;6.00;3.73;;;26.20;99.90;;;;;;5040893;28;20936;-84
2022/09/13 10:52:37;;;;;;;6.33;4.10;;;26.20;99.90;;;;;;5034342;28;20487;-83
2022/09/13 10:55:32;;;;;;;7.43;4.50;;;26.00;99.90;;;;;;5030965;28;20547;-82
2022/09/13 10:58:23;;;;;;;8.43;3.73;;;26.30;99.90;;;;;;4955192;29;20452;-84
2022/09/13 11:01:17;;;;;;;7.03;3.80;;;26.40;99.90;;;;;;4972627;28;20453;-82
2022/09/13 11:04:19;;;;;;;6.47;4.00;;;26.70;99.90;;;;;;5017898;28;20466;-83
2022/09/13 11:06:57;;;;;;;7.07;3.53;;;26.60;99.90;;;;;;5030727;28;20464;-82
2022/09/13 11:09:33;;;;;;;6.97;4.37;;;26.40;99.90;;;;;;5038475;28;20447;-83
2022/09/13 11:12:17;;;;;;;5.60;4.07;;;26.30;99.90;;;;;;5030388;28;20458;-84
2022/09/13 11:14:57;;;;;;;7.90;3.50;;;26.30;99.90;;;;;;5017981;28;20472;-83
2022/09/13 11:17:39;;;;;;;6.13;3.80;;;26.20;99.90;;;;;;5036838;28;20797;-84
2022/09/13 11:20:24;;;;;;;7.60;4.60;;;26.40;99.90;;;;;;5039805;28;20441;-83
2022/09/13 11:23:08;;;;;;;6.27;3.90;;;26.50;99.90;;;;;;5030817;28;20481;-82
2022/09/13 11:25:51;;;;;;;8.17;4.30;;;26.60;99.90;;;;;;5024151;28;20814;-83
2022/09/13 11:28:25;;;;;;;9.30;4.97;;;26.60;99.90;;;;;;5041688;28;20444;-84
2022/09/13 11:31:04;;;;;;;6.07;4.03;;;26.90;99.90;;;;;;5038232;28;20441;-84
2022/09/13 11:33:44;;;;;;;8.20;4.17;;;27.30;99.90;;;;;;5041126;28;20467;-82
2022/09/13 11:36:23;;;;;;;6.03;4.37;;;27.20;99.90;;;;;;5039074;28;20435;-83
2022/09/13 11:39:00;;;;;;;10.13;4.80;;;27.40;99.90;;;;;;5034138;28;20527;-82
2022/09/13 11:41:37;;;;;;;8.10;4.90;;;27.70;99.90;;;;;;5039128;28;20441;-83
2022/09/13 11:44:26;;;;;;;7.10;4.20;;;27.60;99.90;;;;;;5034437;28;20523;-83
2022/09/13 11:47:00;;;;;;;6.80;3.77;;;27.50;99.90;;;;;;5041712;28;20449;-84
2022/09/13 11:49:42;;;;;;;9.53;3.90;;;27.60;99.90;;;;;;5040532;28;20445;-83
2022/09/13 11:52:16;;;;;;;7.43;2.83;;;27.70;99.90;;;;;;5033175;28;20476;-82
2022/09/13 11:55:02;;;;;;;10.30;4.23;;;27.90;99.90;;;;;;5032677;28;20449;-82
2022/09/13 11:57:33;;;;;;;6.87;3.93;;;28.30;99.90;;;;;;5043671;28;20449;-84
2022/09/13 12:00:07;;;;;;;6.93;4.97;;;28.40;99.90;;;;;;5040668;28;20475;-83
2022/09/13 12:02:42;;;;;;;8.73;5.23;;;28.20;99.90;;;;;;5036517;28;20522;-87
2022/09/13 12:05:16;;;;;;;9.80;4.47;;;28.00;99.90;;;;;;5035411;28;20846;-85
2022/09/13 12:07:47;;;;;;;8.17;4.50;;;28.00;99.90;;;;;;5036745;28;20543;-86
2022/09/13 12:10:19;;;;;;;7.03;4.10;;;27.50;99.90;;;;;;5040103;28;20445;-86
2022/09/13 12:12:49;;;;;;;9.60;4.20;;;27.10;99.90;;;;;;5015079;28;20989;-87
2022/09/13 12:15:21;;;;;;;5.03;3.40;;;26.80;99.90;;;;;;5035504;28;20507;-87
2022/09/13 12:17:51;;;;;;;8.53;3.63;;;26.50;99.90;;;;;;5038659;28;21148;-85
2022/09/13 12:20:30;;;;;;;6.17;3.67;;;26.30;99.90;;;;;;5039592;28;20478;-85
2022/09/13 12:23:01;;;;;;;6.83;3.40;;;26.00;99.90;;;;;;5037385;28;20850;-85
2022/09/13 12:25:41;;;;;;;6.13;3.57;;;26.00;99.90;;;;;;5040110;28;21133;-85
2022/09/13 12:28:14;;;;;;;5.20;2.53;;;26.20;99.90;;;;;;5040261;28;20573;-87
2022/09/13 12:30:47;;;;;;;8.70;3.30;;;26.80;99.90;;;;;;5030900;28;20445;-86
2022/09/13 12:33:15;;;;;;;6.83;3.43;;;27.40;99.90;;;;;;5038068;28;20475;-85
2022/09/13 12:35:59;;;;;;;5.50;3.00;;;27.70;99.90;;;;;;5033232;28;20484;-86
2022/09/13 12:38:52;;;;;;;6.10;3.50;;;27.70;99.90;;;;;;5039607;28;20447;-86
2022/09/13 12:41:32;;;;;;;6.97;3.27;;;27.80;99.90;;;;;;5025060;28;20544;-86
2022/09/13 12:44:22;;;;;;;6.33;3.90;;;27.90;99.90;;;;;;5036255;28;20503;-86
2022/09/13 12:47:29;;;;;;;5.77;4.30;;;28.20;99.90;;;;;;5038165;28;20468;-86
2022/09/13 12:50:22;;;;;;;8.80;6.20;;;28.00;99.90;;;;;;5028434;28;20456;-86
2022/09/13 12:53:01;;;;;;;5.83;4.83;;;27.60;99.90;;;;;;5031887;28;20475;-85
2022/09/13 12:55:48;;;;;;;11.20;5.20;;;27.00;99.90;;;;;;5034647;28;20464;-85
2022/09/13 12:58:29;;;;;;;6.23;5.00;;;26.60;99.90;;;;;;5035624;28;20897;-85
2022/09/13 13:01:09;;;;;;;7.20;5.40;;;26.40;99.90;;;;;;5027235;28;20520;-85
2022/09/13 13:03:46;;;;;;;13.07;6.40;;;26.80;99.90;;;;;;5034356;28;20495;-85
2022/09/13 13:06:29;;;;;;;7.00;5.70;;;27.20;99.90;;;;;;5035053;28;20453;-84
2022/09/13 13:08:59;;;;;;;7.30;5.50;;;27.70;99.90;;;;;;5037024;28;20980;-85
2022/09/13 13:11:28;;;;;;;10.07;6.30;;;28.20;99.90;;;;;;5043945;28;20451;-85
2022/09/13 13:13:57;;;;;;;7.90;5.80;;;28.40;99.90;;;;;;5035976;28;20449;-86